My Meet Scores
Riley Hettinger, Phenom Gymnastics - MyMeetScores.com
Top100 | Top Teams | Upcoming Meets | Completed Meets | Latest | Add Scores | Help| Support | Bookmark and Share

Riley Hettinger, Phenom Gymnastics
Personal Bests
LevelVault BarsBeamFloorAA
49.2009.675 9.2509.62537.450
59.1259.150 9.3008.85036.425
79.5759.225 9.1009.40036.525
89.4259.300 9.1509.47537.150
99.2008.875 9.1759.15035.475
Meet Scores
Date Meet Team Session Level Division Vault Bars Beam Floor AA
2018-12-14 2018 Aspire Classic Phenom Gymnastics 6B 9 Older 9.200 5 7.150 11 9.175 1 9.150 3 34.675 7
2018-12-07 2018 MEGA Magic Classic Phenom Gymnastics A5 9 Senior A 8.900 8T 8.875 6T 9.150 1 8.550 8T 35.475 3
2018-03-23 Illinois Level 7 & 8 State Competition Phenom Gymnastics 02 8 Sr B 9.425 7 9.100 9 9.150 6T 9.475 3 37.150 4
2018-03-02 2018 Flip'r Invitational Phenom Gymnastics 9 8 Sr 9.350 2 9.275 7 8.925 7 9.450 6 37.000 4
2018-02-23 Kinetic Classic Phenom Gymnastics 2 8 Older 9.125 11 9.200 17T 8.000 35 9.150 19T 35.475 20
2018-02-16 2018 Magical Classic Phenom Gymnastics A2 8 Group 4 9.300 2 7.575 10 8.775 9 8.550 12 34.200 10
2018-01-19 2018 Bravo Classic Phenom Gymnastics 5A 8 Sr 9.425 3 9.300 3 9.000 8T 8.600 16T 36.325 3
2018-01-12 St Jude Benefit Meet Phenom Gymnastics 3B 8 SrB 9.100 5T 9.000 8 8.600 12 8.500 12 35.200 7
2017-12-15 2017 Aspire Classic Phenom Gymnastics 7B 8 Older 9.150 3 8.425 11 9.075 6 9.250 6 35.900 4
2017-03-16 2017 Illinois Level 8, 9 & 10 State Meet Phenom Gymnastics All 8 Jr E 9.350 5T 9.275 8 8.650 16T 9.300 14T 36.575 10
2017-03-10 Lucky Invitational Phenom Gymnastics A04 8 Jr B 9.200 3 9.125 5 9.150 3 9.125 5T 36.600 3T
2017-02-24 Kinetic Classic Phenom Gymnastics 2 8 All Ages 9.250 9T 8.750 28T 9.025 20T 9.400 11T 36.425 14
2017-02-17 Big Classic Phenom Gymnastics A 8 Junior A 8.850 14 8.550 22 9.025 12 8.625 23 35.050 19
2017-01-20 2017 Bravo Classic Phenom Gymnastics 03A 8 8-12yrs 8.775 19 8.325 25 8.700 17T 9.100 17T 34.900 22
2016-12-16 2016 Aspire Classic Phenom Gymnastics 9 8 Middle 9.400 2 8.975 6T 0.000 15T 8.750 12T 27.125 14
2016-04-01 2016 Illinois Level 6 & 7 State Championships Phenom Gymnastics 03 7 L7 Jr E 9.575 16T 8.825 25 9.100 13T 9.025 28 36.525 19
2016-02-20 Big Classic Phenom Gymnastics 5A 7 Junior B 9.250 17 9.000 17 8.700 20T 9.300 11 36.250 19
2016-01-22 King Arthur Invitational Phenom Gymnastics S5 7 Jr.B 9.200 5 8.800 11 8.950 9 9.375 3 36.325 7
2016-01-15 2016 Bravo Classic Phenom Gymnastics 3B 7 7-11yrs 9.125 10 8.800 9T 8.275 17 9.400 10T 35.600 12T
2015-12-11 St. Nick Invite Phenom Gymnastics 8A 7 Junior 9.275 11T 9.225 10T 8.275 16 9.275 8 36.050 12
2015-03-13 2015 Lucky Invite Phenom Gymnastics B3 5 Sr.A 9.125 4 9.150 5 9.300 4 8.850 11 36.425 5
2014-03-13 2014 Illinois Level 4 State Meet Phenom Gymnastics 4 Jr.D 9.200 2 9.675 2 8.950 15 9.625 1 37.450 2
2014-03-07 LGA Lucky Invite Phenom Gymnastics B7 4 Sr A 8.600 8 8.750 10T 9.250 7 8.950 8 35.550 10
2014-01-31 World Class Gateway Challenge Phenom Gymnastics 3B 4 9 years 8.500 7 9.225 8T 8.950 8 8.825 12 35.500 7
2014-01-24 2014 UGA Super Invitational Phenom Gymnastics 6B 4 All Ages 8.900 12 9.200 11 9.000 28T 8.850 33T 35.950 19
2013-12-20 2013 Aspire Classic Phenom Gymnastics 9 4 10+yrs 8.200 23 8.800 12T 8.600 17 9.100 12 34.700 15T
2013-03-08 LGA Lucky Invite Fox Valley Family YMCA B5 4 9 8.950 5 8.050 6 9.050 4 8.875 6 34.925 5

www.lazysuits.com